Time;durP1;ratioP1;P1;durP2;ratioP2;P2;SDS_P1;SDS_P2;PMS_P1;PMS_P2;Temp;Humidity;BMP_temperature;BMP_pressure;BME280_temperature;BME280_humidity;BME280_pressure;Samples;Min_cycle;Max_cycle;Signal;HPM_P1;HPM_P2
2022/03/17 00:01:39;;;;;;;26.00;20.92;;;;;;;;;;5033991;28;20032;-56
2022/03/17 00:08:10;;;;;;;25.17;21.30;;;;;;;;;;5040993;28;20124;-57
2022/03/17 00:10:33;;;;;;;25.13;21.38;;;;;;;;;;5029843;28;20057;-57
2022/03/17 00:16:24;;;;;;;27.95;21.08;;;;;;;;;;5031606;28;20084;-57
2022/03/17 00:19:05;;;;;;;26.08;20.67;;;;;;;;;;5033592;28;20484;-57
2022/03/17 00:21:46;;;;;;;;;;;;;;;;;;5033221;28;20111;-57
2022/03/17 00:24:28;;;;;;;24.50;20.88;;;;;;;;;;5066595;28;20293;-57
2022/03/17 00:27:14;;;;;;;25.23;20.80;;;;;;;;;;5095827;28;20440;-55
2022/03/17 00:30:09;;;;;;;25.42;21.95;;;;;;;;;;5095957;28;20104;-56
2022/03/17 00:33:02;;;;;;;30.00;21.52;;;;;;;;;;5059178;28;20033;-58
2022/03/17 00:41:40;;;;;;;30.63;23.55;;;;;;;;;;5095030;28;20492;-57
2022/03/17 00:44:15;;;;;;;27.25;23.63;;;;;;;;;;5076497;28;20024;-57
2022/03/17 00:50:02;;;;;;;26.10;22.65;;;;;;;;;;5094836;28;20051;-57
2022/03/17 00:55:35;;;;;;;30.23;22.73;;;;;;;;;;5093906;28;20057;-55
2022/03/17 00:58:16;;;;;;;27.40;23.00;;;;;;;;;;5093705;28;20121;-55
2022/03/17 01:00:57;;;;;;;27.48;22.92;;;;;;;;;;5052779;28;20086;-57
2022/03/17 01:03:35;;;;;;;27.42;23.10;;;;;;;;;;4993391;28;20039;-57
2022/03/17 01:06:17;;;;;;;27.25;23.17;;;;;;;;;;4995199;28;20046;-57
2022/03/17 01:09:21;;;;;;;28.25;23.63;;;;;;;;;;5013707;28;20128;-56
2022/03/17 01:12:21;;;;;;;30.77;23.58;;;;;;;;;;5013551;28;20033;-58
2022/03/17 01:15:18;;;;;;;26.35;23.27;;;;;;;;;;4953934;28;20031;-58
2022/03/17 01:18:27;;;;;;;;;;;;;;;;;;;;;
2022/03/17 01:23:58;;;;;;;27.10;23.98;;;;;;;;;;4957568;28;20371;-58
2022/03/17 01:26:35;;;;;;;35.55;22.73;;;;;;;;;;5009918;28;20038;-58
2022/03/17 01:29:25;;;;;;;28.60;22.05;;;;;;;;;;5016020;28;20042;-58
2022/03/17 01:31:59;;;;;;;33.58;26.35;;;;;;;;;;5038509;28;20052;-58
2022/03/17 01:37:58;;;;;;;30.55;24.17;;;;;;;;;;5095311;28;20032;-57
2022/03/17 01:40:36;;;;;;;29.58;24.75;;;;;;;;;;5098506;28;20388;-57
2022/03/17 01:43:27;;;;;;;29.35;26.15;;;;;;;;;;5098393;28;20096;-56
2022/03/17 01:46:22;;;;;;;29.92;22.30;;;;;;;;;;5097957;28;20032;-55
2022/03/17 01:51:52;;;;;;;31.70;24.38;;;;;;;;;;5097866;28;20043;-58
2022/03/17 01:54:27;;;;;;;25.88;23.02;;;;;;;;;;5098974;28;20028;-58
2022/03/17 01:57:07;;;;;;;31.77;25.83;;;;;;;;;;5080463;28;20043;-57
2022/03/17 01:59:43;;;;;;;31.05;26.05;;;;;;;;;;5098452;28;20032;-57
2022/03/17 02:02:44;;;;;;;29.98;25.08;;;;;;;;;;5098983;28;20032;-57
2022/03/17 02:05:32;;;;;;;28.30;23.92;;;;;;;;;;5065260;28;20044;-57
2022/03/17 02:08:15;;;;;;;31.55;25.33;;;;;;;;;;5078066;28;20451;-58
2022/03/17 02:13:59;;;;;;;31.10;25.70;;;;;;;;;;5074842;28;20043;-58
2022/03/17 02:25:33;;;;;;;31.30;25.85;;;;;;;;;;5077246;28;20055;-55
2022/03/17 02:32:26;;;;;;;32.35;26.40;;;;;;;;;;4983737;28;20040;-57
2022/03/17 02:35:07;;;;;;;28.90;25.33;;;;;;;;;;5035674;28;20090;-57
2022/03/17 02:38:01;;;;;;;31.40;24.05;;;;;;;;;;5062108;28;20602;-57
2022/03/17 02:40:27;;;;;;;32.90;24.67;;;;;;;;;;5077373;28;20028;-57
2022/03/17 02:43:14;;;;;;;27.33;23.00;;;;;;;;;;5058674;28;20043;-57
2022/03/17 02:46:08;;;;;;;28.67;23.75;;;;;;;;;;5043512;28;20113;-58
2022/03/17 02:49:20;;;;;;;;;;;;;;;;;;;;;
2022/03/17 02:55:10;;;;;;;26.40;23.58;;;;;;;;;;5073091;28;20493;-56
2022/03/17 02:57:44;;;;;;;32.40;24.00;;;;;;;;;;5059156;28;20358;-57
2022/03/17 03:00:36;;;;;;;34.20;25.55;;;;;;;;;;5058570;28;20470;-58
2022/03/17 03:03:06;;;;;;;34.10;25.90;;;;;;;;;;5077816;28;20021;-57
2022/03/17 03:08:43;;;;;;;30.63;24.58;;;;;;;;;;5097022;28;20043;-57
2022/03/17 03:14:40;;;;;;;30.65;26.45;;;;;;;;;;5089090;28;20032;-57
2022/03/17 03:17:37;;;;;;;;;;;;;;;;;;;;;
2022/03/17 03:20:27;;;;;;;32.10;25.75;;;;;;;;;;5029284;28;20091;-57
2022/03/17 03:23:17;;;;;;;27.42;23.48;;;;;;;;;;5095413;28;20074;-57
2022/03/17 03:26:30;;;;;;;32.40;25.35;;;;;;;;;;5096049;28;20031;-56
2022/03/17 03:31:54;;;;;;;27.35;24.42;;;;;;;;;;5096019;28;20385;-57
2022/03/17 03:34:37;;;;;;;;;;;;;;;;;;;;;
2022/03/17 03:37:25;;;;;;;29.95;24.10;;;;;;;;;;5027140;28;20362;-57
2022/03/17 03:43:37;;;;;;;33.67;26.50;;;;;;;;;;5081945;28;20028;-57
2022/03/17 03:49:19;;;;;;;28.90;24.38;;;;;;;;;;5045861;28;20040;-57
2022/03/17 03:55:17;;;;;;;27.98;24.58;;;;;;;;;;5041869;28;20106;-57
2022/03/17 03:57:46;;;;;;;31.98;26.63;;;;;;;;;;5089438;28;20085;-57
2022/03/17 04:00:32;;;;;;;30.50;25.33;;;;;;;;;;5094517;28;20035;-57
2022/03/17 04:06:51;;;;;;;31.27;26.17;;;;;;;;;;4993577;28;20041;-56
2022/03/17 04:12:25;;;;;;;36.00;26.80;;;;;;;;;;5041475;28;20032;-57
2022/03/17 04:15:15;;;;;;;29.77;22.98;;;;;;;;;;5076237;28;20029;-57
2022/03/17 04:18:03;;;;;;;31.80;26.85;;;;;;;;;;5071425;28;20062;-56
2022/03/17 04:20:30;;;;;;;31.25;24.50;;;;;;;;;;5076164;28;20055;-56
2022/03/17 04:23:18;;;;;;;27.90;23.73;;;;;;;;;;5032982;28;20040;-56
2022/03/17 04:26:11;;;;;;;29.58;24.13;;;;;;;;;;5016854;28;20036;-57
2022/03/17 04:31:51;;;;;;;34.63;24.20;;;;;;;;;;5025850;28;20052;-57
2022/03/17 04:34:30;;;;;;;31.42;26.05;;;;;;;;;;5030666;28;20475;-57
2022/03/17 04:40:48;;;;;;;;;;;;;;;;;;;;;
2022/03/17 04:49:21;;;;;;;31.88;26.52;;;;;;;;;;5025537;28;20428;-56
2022/03/17 04:55:01;;;;;;;31.85;26.67;;;;;;;;;;5002391;28;20036;-56
2022/03/17 04:58:06;;;;;;;30.85;24.52;;;;;;;;;;5018380;28;20034;-56
2022/03/17 05:00:58;;;;;;;30.00;25.17;;;;;;;;;;5040948;28;20109;-58
2022/03/17 05:10:07;;;;;;;29.27;25.08;;;;;;;;;;4976177;28;20512;-57
2022/03/17 05:12:43;;;;;;;32.35;25.77;;;;;;;;;;5012065;28;20033;-57
2022/03/17 05:15:33;;;;;;;34.83;25.15;;;;;;;;;;5015713;28;20462;-57
2022/03/17 05:18:31;;;;;;;35.85;28.20;;;;;;;;;;5015287;28;20030;-55
2022/03/17 05:21:44;;;;;;;33.78;27.50;;;;;;;;;;4976569;28;20030;-57
2022/03/17 05:24:18;;;;;;;29.48;25.67;;;;;;;;;;5022974;28;20029;-56
2022/03/17 05:26:58;;;;;;;;;;;;;;;;;;;;;
2022/03/17 05:29:35;;;;;;;31.73;26.03;;;;;;;;;;5092909;28;20046;-57
2022/03/17 05:35:18;;;;;;;32.17;25.13;;;;;;;;;;5096819;28;20495;-57
2022/03/17 05:43:54;;;;;;;36.25;26.08;;;;;;;;;;5054772;28;20020;-57
2022/03/17 05:46:56;;;;;;;34.40;26.63;;;;;;;;;;5078086;28;20020;-57
2022/03/17 05:52:42;;;;;;;;;;;;;;;;;;;;;
2022/03/17 05:55:36;;;;;;;29.63;25.85;;;;;;;;;;5024416;28;20025;-57
2022/03/17 05:58:25;;;;;;;30.27;25.58;;;;;;;;;;5055531;28;20099;-57
2022/03/17 06:01:16;;;;;;;34.55;24.42;;;;;;;;;;5024101;28;20124;-57
2022/03/17 06:03:51;;;;;;;33.05;25.95;;;;;;;;;;5034396;28;20037;-58
2022/03/17 06:06:42;;;;;;;40.70;26.83;;;;;;;;;;5032482;28;20377;-57
2022/03/17 06:13:15;;;;;;;33.50;26.10;;;;;;;;;;4936000;29;20038;-58
2022/03/17 06:19:01;;;;;;;32.15;26.30;;;;;;;;;;4956189;29;20042;-57
2022/03/17 06:21:59;;;;;;;34.80;26.08;;;;;;;;;;4955876;29;20493;-56
2022/03/17 06:24:52;;;;;;;29.83;25.10;;;;;;;;;;4933148;29;20086;-57
2022/03/17 06:27:42;;;;;;;;;;;;;;;;;;;;;
2022/03/17 06:33:52;;;;;;;32.08;26.38;;;;;;;;;;5053375;28;20044;-57
2022/03/17 06:45:42;;;;;;;32.20;28.25;;;;;;;;;;5091155;28;20023;-57
2022/03/17 06:48:24;;;;;;;53.30;38.90;;;;;;;;;;5074794;28;20027;-58
2022/03/17 06:51:16;;;;;;;35.17;29.55;;;;;;;;;;5076402;28;20128;-56
2022/03/17 06:54:15;;;;;;;35.20;25.70;;;;;;;;;;5095135;28;20039;-55
2022/03/17 06:57:13;;;;;;;39.33;26.45;;;;;;;;;;5095473;28;20032;-55
2022/03/17 07:00:03;;;;;;;34.53;26.80;;;;;;;;;;5032591;28;20352;-55
2022/03/17 07:02:41;;;;;;;34.22;27.08;;;;;;;;;;5050099;28;20036;-56
2022/03/17 07:05:18;;;;;;;36.08;26.10;;;;;;;;;;5074060;28;20083;-56
2022/03/17 07:08:03;;;;;;;34.03;27.15;;;;;;;;;;5094358;28;20370;-57
2022/03/17 07:13:41;;;;;;;29.73;25.88;;;;;;;;;;5094088;28;20062;-56
2022/03/17 07:19:41;;;;;;;33.80;26.60;;;;;;;;;;5093516;28;20036;-58
2022/03/17 07:22:26;;;;;;;32.83;26.40;;;;;;;;;;5071275;28;20115;-58
2022/03/17 07:25:03;;;;;;;31.80;25.70;;;;;;;;;;5093702;28;20028;-58
2022/03/17 07:27:52;;;;;;;31.02;25.92;;;;;;;;;;5094647;28;20457;-56
2022/03/17 07:30:39;;;;;;;32.22;25.70;;;;;;;;;;5084425;28;20040;-57
2022/03/17 07:37:03;;;;;;;31.83;26.13;;;;;;;;;;5063417;28;20043;-57
2022/03/17 07:39:44;;;;;;;32.38;25.63;;;;;;;;;;5051211;28;20033;-58
2022/03/17 07:42:34;;;;;;;34.03;25.10;;;;;;;;;;5060855;28;20470;-56
2022/03/17 07:48:33;;;;;;;35.10;27.25;;;;;;;;;;5058668;28;20036;-57
2022/03/17 07:54:11;;;;;;;42.20;27.45;;;;;;;;;;5094625;28;20032;-57
2022/03/17 07:57:04;;;;;;;;;;;;;;;;;;;;;
2022/03/17 08:09:39;;;;;;;;;;;;;;;;;;;;;
2022/03/17 08:12:27;;;;;;;;;;;;;;;;;;;;;
2022/03/17 08:15:10;;;;;;;36.65;28.92;;;;;;;;;;5090603;28;20035;-57
2022/03/17 08:17:54;;;;;;;32.13;26.40;;;;;;;;;;5074751;28;20446;-58
2022/03/17 08:20:36;;;;;;;32.65;25.67;;;;;;;;;;5075189;28;20470;-57
2022/03/17 08:23:05;;;;;;;41.75;29.23;;;;;;;;;;5091464;28;20031;-56
2022/03/17 08:25:59;;;;;;;34.50;28.92;;;;;;;;;;5092975;28;20068;-57
2022/03/17 08:32:00;;;;;;;37.90;26.85;;;;;;;;;;5092962;28;20031;-57
2022/03/17 08:37:54;;;;;;;34.33;25.75;;;;;;;;;;5096729;28;20393;-57
2022/03/17 08:43:35;;;;;;;34.00;27.23;;;;;;;;;;5085752;28;20326;-57
2022/03/17 08:52:33;;;;;;;35.08;27.67;;;;;;;;;;5096670;28;20194;-57
2022/03/17 08:55:13;;;;;;;39.50;28.00;;;;;;;;;;5096301;28;20032;-57
2022/03/17 09:09:11;;;;;;;33.67;27.25;;;;;;;;;;5095487;28;20075;-58
2022/03/17 09:11:38;;;;;;;35.35;28.50;;;;;;;;;;5060599;28;20040;-58
2022/03/17 09:17:21;;;;;;;33.47;26.35;;;;;;;;;;5096455;28;20122;-57
2022/03/17 09:22:44;;;;;;;32.78;26.65;;;;;;;;;;5096582;28;20059;-58
2022/03/17 09:25:34;;;;;;;37.55;28.13;;;;;;;;;;5073030;28;20065;-57
2022/03/17 09:34:45;;;;;;;34.67;27.13;;;;;;;;;;4995260;28;20034;-58
2022/03/17 09:37:30;;;;;;;36.33;28.20;;;;;;;;;;5034753;28;20041;-58
2022/03/17 09:40:18;;;;;;;39.17;30.67;;;;;;;;;;5034141;28;20125;-57
2022/03/17 09:44:21;;;;;;;;;;;;;;;;;;;;;
2022/03/17 09:46:09;;;;;;;36.65;29.63;;;;;;;;;;5054544;28;20036;-58
2022/03/17 09:48:47;;;;;;;38.33;29.90;;;;;;;;;;5056528;28;20332;-57
2022/03/17 09:51:20;;;;;;;36.28;28.98;;;;;;;;;;5062708;28;20509;-58
2022/03/17 09:53:53;;;;;;;34.55;28.15;;;;;;;;;;5056304;28;20096;-57
2022/03/17 09:59:53;;;;;;;32.70;27.23;;;;;;;;;;5066400;28;20036;-57
2022/03/17 10:02:34;;;;;;;39.28;29.25;;;;;;;;;;5095109;28;20024;-56
2022/03/17 10:05:28;;;;;;;33.35;25.75;;;;;;;;;;5091489;28;20028;-58
2022/03/17 10:08:03;;;;;;;29.60;26.30;;;;;;;;;;5093563;28;20119;-58
2022/03/17 10:20:35;;;;;;;31.73;27.00;;;;;;;;;;5061932;28;20032;-58
2022/03/17 10:23:24;;;;;;;29.90;25.88;;;;;;;;;;5072459;28;20482;-57
2022/03/17 10:26:15;;;;;;;32.53;26.85;;;;;;;;;;5026161;28;20045;-57
2022/03/17 10:29:19;;;;;;;;;;;;;;;;;;;;;
2022/03/17 10:32:18;;;;;;;32.15;27.00;;;;;;;;;;5046358;28;20036;-57
2022/03/17 10:34:59;;;;;;;34.67;26.38;;;;;;;;;;5055795;28;20544;-58
2022/03/17 10:37:39;;;;;;;29.10;24.23;;;;;;;;;;5072286;28;20147;-58
2022/03/17 10:40:47;;;;;;;29.08;26.05;;;;;;;;;;5071168;28;20064;-58
2022/03/17 10:43:34;;;;;;;27.88;23.70;;;;;;;;;;5012707;28;20026;-57
2022/03/17 10:46:39;;;;;;;31.42;23.30;;;;;;;;;;4937251;28;20038;-58
2022/03/17 10:49:26;;;;;;;31.00;23.23;;;;;;;;;;4988907;28;20050;-58
2022/03/17 10:58:31;;;;;;;36.75;26.80;;;;;;;;;;4933934;29;20043;-58
2022/03/17 11:01:15;;;;;;;;;;;;;;;;;;;;;
2022/03/17 11:03:55;;;;;;;41.67;28.10;;;;;;;;;;5012461;28;20025;-57
2022/03/17 11:07:01;;;;;;;;;;;;;;;;;;;;;
2022/03/17 11:10:16;;;;;;;37.72;24.73;;;;;;;;;;5086536;28;20462;-58
2022/03/17 11:16:09;;;;;;;37.67;24.92;;;;;;;;;;5094355;28;20401;-56
2022/03/17 11:19:12;;;;;;;;;;;;;;;;;;;;;
2022/03/17 11:21:53;;;;;;;34.38;24.58;;;;;;;;;;5094442;28;20016;-58
2022/03/17 11:24:44;;;;;;;31.48;25.50;;;;;;;;;;5094212;28;20024;-58
2022/03/17 11:30:37;;;;;;;29.35;24.23;;;;;;;;;;5093982;28;20115;-56
2022/03/17 11:36:22;;;;;;;30.08;24.45;;;;;;;;;;5094083;28;20126;-58
2022/03/17 11:39:12;;;;;;;35.05;25.65;;;;;;;;;;5057754;28;20036;-56
2022/03/17 11:41:48;;;;;;;33.88;26.85;;;;;;;;;;5075819;28;20529;-58
2022/03/17 11:44:34;;;;;;;25.52;22.90;;;;;;;;;;5051879;28;20131;-55
2022/03/17 12:03:10;;;;;;;31.75;22.73;;;;;;;;;;5011698;28;20053;-57
2022/03/17 12:05:53;;;;;;;35.25;26.42;;;;;;;;;;5011210;28;20065;-58
2022/03/17 12:08:34;;;;;;;32.50;25.85;;;;;;;;;;5010107;28;20038;-58
2022/03/17 12:14:41;;;;;;;27.63;22.77;;;;;;;;;;5005123;28;20128;-58
2022/03/17 12:17:40;;;;;;;36.03;24.90;;;;;;;;;;5038721;28;20493;-56
2022/03/17 12:23:26;;;;;;;36.40;27.75;;;;;;;;;;5073831;28;20110;-58
2022/03/17 12:26:11;;;;;;;32.28;25.75;;;;;;;;;;4973295;28;20322;-58
2022/03/17 12:40:35;;;;;;;36.78;27.77;;;;;;;;;;5012536;28;20132;-58
2022/03/17 12:43:12;;;;;;;38.20;27.02;;;;;;;;;;5051034;28;20033;-58
2022/03/17 12:45:48;;;;;;;33.03;28.67;;;;;;;;;;5054966;28;20028;-58
2022/03/17 12:48:32;;;;;;;35.20;27.53;;;;;;;;;;5054694;28;20444;-58
2022/03/17 12:51:28;;;;;;;36.70;28.38;;;;;;;;;;5073250;28;20021;-58
2022/03/17 12:54:03;;;;;;;33.22;27.15;;;;;;;;;;5055352;28;20467;-58
2022/03/17 12:56:51;;;;;;;35.28;28.02;;;;;;;;;;5072499;28;20075;-58
2022/03/17 12:59:18;;;;;;;35.95;27.60;;;;;;;;;;5054341;28;20043;-58
2022/03/17 13:02:02;;;;;;;38.72;30.02;;;;;;;;;;5073354;28;20296;-58
2022/03/17 13:04:43;;;;;;;36.58;28.00;;;;;;;;;;5054985;28;20497;-58
2022/03/17 13:07:47;;;;;;;34.92;28.38;;;;;;;;;;5073031;28;20420;-58
2022/03/17 13:16:30;;;;;;;34.97;30.08;;;;;;;;;;5094174;28;20023;-58
2022/03/17 13:19:31;;;;;;;33.88;30.13;;;;;;;;;;5096147;28;20505;-58
2022/03/17 13:22:15;;;;;;;38.00;28.10;;;;;;;;;;5070504;28;20573;-58
2022/03/17 13:28:13;;;;;;;34.45;28.20;;;;;;;;;;5088261;28;20028;-58
2022/03/17 13:30:40;;;;;;;;;;;;;;;;;;5097609;28;20024;-58
2022/03/17 13:33:23;;;;;;;;;;;;;;;;;;;;;
2022/03/17 13:39:40;;;;;;;31.58;27.05;;;;;;;;;;5096691;28;20032;-58
2022/03/17 13:42:36;;;;;;;34.33;28.60;;;;;;;;;;5078099;28;20500;-55
2022/03/17 13:48:34;;;;;;;36.50;29.13;;;;;;;;;;5088049;28;20065;-57
2022/03/17 13:51:28;;;;;;;34.72;28.10;;;;;;;;;;5093701;28;20551;-58
2022/03/17 13:54:22;;;;;;;;;;;;;;;;;;;;;
2022/03/17 13:57:24;;;;;;;36.58;27.83;;;;;;;;;;5093121;28;20122;-58
2022/03/17 14:03:32;;;;;;;;;;;;;;;;;;5093604;28;20024;-58
2022/03/17 14:09:20;;;;;;;34.90;28.33;;;;;;;;;;5090432;28;20062;-57
2022/03/17 14:12:12;;;;;;;36.58;27.25;;;;;;;;;;5074336;28;20044;-57
2022/03/17 14:14:58;;;;;;;29.98;23.55;;;;;;;;;;5097395;28;20032;-57
2022/03/17 14:18:12;;;;;;;32.35;26.83;;;;;;;;;;5078328;28;20073;-58
2022/03/17 14:24:24;;;;;;;34.95;27.20;;;;;;;;;;5007601;28;20038;-57
2022/03/17 14:27:29;;;;;;;;;;;;;;;;;;;;;
2022/03/17 14:30:10;;;;;;;37.70;25.85;;;;;;;;;;5060063;28;20052;-57
2022/03/17 14:33:13;;;;;;;36.67;27.48;;;;;;;;;;5097204;28;20024;-58
2022/03/17 14:35:43;;;;;;;38.40;28.92;;;;;;;;;;5077392;28;20466;-58
2022/03/17 14:38:43;;;;;;;;;;;;;;;;;;;;;
2022/03/17 14:41:18;;;;;;;;;;;;;;;;;;5045132;28;20040;-58
2022/03/17 14:43:49;;;;;;;29.13;24.00;;;;;;;;;;5077504;28;19908;-57
2022/03/17 15:04:53;;;;;;;;;;;;;;;;;;;;;
2022/03/17 15:07:34;;;;;;;33.10;27.15;;;;;;;;;;5078963;28;20039;-57
2022/03/17 15:10:32;;;;;;;37.88;27.27;;;;;;;;;;5095047;28;20062;-57
2022/03/17 15:15:50;;;;;;;31.15;26.98;;;;;;;;;;5094837;28;20046;-58
2022/03/17 15:18:53;;;;;;;;;;;;;;;;;;;;;
2022/03/17 15:21:17;;;;;;;36.75;29.33;;;;;;;;;;5089910;28;20448;-57
2022/03/17 15:23:59;;;;;;;32.60;27.25;;;;;;;;;;5095427;28;20020;-57
2022/03/17 15:35:33;;;;;;;37.88;27.27;;;;;;;;;;5080214;28;20484;-57
2022/03/17 15:38:21;;;;;;;34.28;28.02;;;;;;;;;;5095174;28;20024;-57
2022/03/17 15:41:06;;;;;;;31.98;26.83;;;;;;;;;;5094637;28;20429;-57
2022/03/17 15:44:03;;;;;;;36.70;29.10;;;;;;;;;;5076355;28;20036;-57
2022/03/17 15:46:48;;;;;;;;;;;;;;;;;;;;;
2022/03/17 15:49:27;;;;;;;;;;;;;;;;;;;;;
2022/03/17 15:52:12;;;;;;;;;;;;;;;;;;;;;
2022/03/17 15:57:53;;;;;;;31.65;27.02;;;;;;;;;;5093778;28;20039;-58
2022/03/17 16:00:58;;;;;;;33.25;27.95;;;;;;;;;;5093644;28;20024;-57
2022/03/17 16:18:32;;;;;;;32.83;27.80;;;;;;;;;;5031537;28;20088;-58
2022/03/17 16:24:13;;;;;;;35.08;29.15;;;;;;;;;;5021140;28;20039;-57
2022/03/17 16:26:47;;;;;;;36.63;28.17;;;;;;;;;;5031486;28;20029;-58
2022/03/17 16:29:24;;;;;;;43.70;29.85;;;;;;;;;;5091152;28;20047;-58
2022/03/17 16:44:33;;;;;;;40.83;29.65;;;;;;;;;;5091507;28;20028;-58
2022/03/17 16:47:35;;;;;;;33.30;28.27;;;;;;;;;;5072263;28;20436;-57
2022/03/17 16:53:12;;;;;;;33.15;27.92;;;;;;;;;;5075541;28;20509;-58
2022/03/17 16:56:09;;;;;;;31.55;27.90;;;;;;;;;;5058846;28;20521;-58
2022/03/17 16:58:49;;;;;;;35.65;28.38;;;;;;;;;;5075582;28;20031;-57
2022/03/17 17:04:29;;;;;;;35.40;29.58;;;;;;;;;;5076303;28;20536;-55
2022/03/17 17:15:46;;;;;;;38.97;29.00;;;;;;;;;;5076417;28;20074;-57
2022/03/17 17:18:26;;;;;;;35.17;29.17;;;;;;;;;;5089530;28;20152;-58
2022/03/17 17:20:53;;;;;;;34.15;29.60;;;;;;;;;;5097401;28;20028;-57
2022/03/17 17:32:32;;;;;;;36.03;26.10;;;;;;;;;;5096753;28;20022;-56
2022/03/17 17:35:22;;;;;;;37.88;27.30;;;;;;;;;;5079406;28;20076;-57
2022/03/17 17:37:55;;;;;;;36.55;29.45;;;;;;;;;;5097277;28;20020;-58
2022/03/17 17:40:35;;;;;;;33.13;25.17;;;;;;;;;;5075382;28;20438;-58
2022/03/17 17:43:10;;;;;;;32.42;26.25;;;;;;;;;;5097782;28;20035;-58
2022/03/17 17:48:44;;;;;;;32.55;26.42;;;;;;;;;;5057410;28;20342;-58
2022/03/17 17:55:12;;;;;;;;;;;;;;;;;;;;;
2022/03/17 17:57:58;;;;;;;;;;;;;;;;;;;;;
2022/03/17 18:00:33;;;;;;;37.15;26.67;;;;;;;;;;5027840;28;20385;-57
2022/03/17 18:03:27;;;;;;;38.70;27.95;;;;;;;;;;5095012;28;20400;-57
2022/03/17 18:16:10;;;;;;;35.28;27.13;;;;;;;;;;5096154;28;20039;-56
2022/03/17 18:18:52;;;;;;;36.55;28.75;;;;;;;;;;5078059;28;20028;-57
2022/03/17 18:21:33;;;;;;;34.40;27.08;;;;;;;;;;5078890;28;20482;-57
2022/03/17 18:27:15;;;;;;;35.03;26.77;;;;;;;;;;5096582;28;20031;-57
2022/03/17 18:30:19;;;;;;;33.08;25.73;;;;;;;;;;5095844;28;20570;-57
2022/03/17 18:39:02;;;;;;;40.15;27.83;;;;;;;;;;5096014;28;20386;-57
2022/03/17 18:41:38;;;;;;;38.72;30.33;;;;;;;;;;5076530;28;20089;-57
2022/03/17 18:44:22;;;;;;;36.85;28.25;;;;;;;;;;5095839;28;20077;-57
2022/03/17 18:46:51;;;;;;;31.25;25.95;;;;;;;;;;5095732;28;20411;-57
2022/03/17 18:52:39;;;;;;;33.42;27.55;;;;;;;;;;5096422;28;20115;-57
2022/03/17 18:55:34;;;;;;;32.35;25.58;;;;;;;;;;5078201;28;20480;-57
2022/03/17 19:01:49;;;;;;;35.88;28.52;;;;;;;;;;5096384;28;20093;-57
2022/03/17 19:07:43;;;;;;;43.10;29.30;;;;;;;;;;5063750;28;20036;-57
2022/03/17 19:10:25;;;;;;;32.33;26.08;;;;;;;;;;5032220;28;20424;-57
2022/03/17 19:13:26;;;;;;;;;;;;;;;;;;;;;
2022/03/17 19:19:31;;;;;;;36.15;28.65;;;;;;;;;;5095674;28;20063;-57
2022/03/17 19:22:00;;;;;;;37.38;30.25;;;;;;;;;;5095551;28;20028;-57
2022/03/17 19:24:44;;;;;;;46.38;34.53;;;;;;;;;;5076589;28;20131;-57
2022/03/17 19:27:43;;;;;;;;;;;;;;;;;;;;;
2022/03/17 19:33:45;;;;;;;30.95;27.55;;;;;;;;;;5051062;28;20029;-57
2022/03/17 19:36:18;;;;;;;42.88;32.38;;;;;;;;;;5056228;28;20179;-57
2022/03/17 19:39:09;;;;;;;;;;;;;;;;;;;;;
2022/03/17 19:42:22;;;;;;;42.67;34.60;;;;;;;;;;5051666;28;20024;-57
2022/03/17 19:44:58;;;;;;;43.08;35.03;;;;;;;;;;5082525;28;20024;-56
2022/03/17 19:53:45;;;;;;;;;;;;;;;;;;;;;
2022/03/17 20:02:57;;;;;;;;;;;;;;;;;;;;;
2022/03/17 20:05:49;;;;;;;47.55;35.83;;;;;;;;;;5093527;28;20381;-57
2022/03/17 20:09:03;;;;;;;;;;;;;;;;;;;;;
2022/03/17 20:15:07;;;;;;;43.42;35.33;;;;;;;;;;5093370;28;20075;-57
2022/03/17 20:18:03;;;;;;;;;;;;;;;;;;;;;
2022/03/17 20:20:32;;;;;;;43.42;35.33;;;;;;;;;;5082393;28;20040;-56
2022/03/17 20:23:26;;;;;;;45.13;35.45;;;;;;;;;;5075574;28;20119;-55
2022/03/17 20:26:29;;;;;;;56.75;39.15;;;;;;;;;;5091955;28;20394;-57
2022/03/17 20:29:03;;;;;;;51.67;36.80;;;;;;;;;;5071032;28;20110;-57
2022/03/17 20:34:41;;;;;;;;;;;;;;;;;;;;;
2022/03/17 20:43:47;;;;;;;38.22;32.60;;;;;;;;;;5011576;28;20030;-57
2022/03/17 20:46:35;;;;;;;51.75;38.75;;;;;;;;;;5010744;28;20042;-57
2022/03/17 20:49:19;;;;;;;45.97;37.65;;;;;;;;;;5011129;28;20050;-57
2022/03/17 20:52:24;;;;;;;;;;;;;;;;;;;;;
2022/03/17 20:55:02;;;;;;;46.55;37.10;;;;;;;;;;5011253;28;20034;-57
2022/03/17 21:00:54;;;;;;;45.97;35.22;;;;;;;;;;5051135;28;20055;-57
2022/03/17 21:03:39;;;;;;;50.28;38.67;;;;;;;;;;5093082;28;20459;-57
2022/03/17 21:06:31;;;;;;;;;;;;;;;;;;;;;
2022/03/17 21:12:27;;;;;;;47.28;34.17;;;;;;;;;;5090954;28;20035;-57
2022/03/17 21:15:22;;;;;;;50.00;40.65;;;;;;;;;;5070743;28;20394;-57
2022/03/17 21:21:35;;;;;;;52.00;40.33;;;;;;;;;;5073631;28;20390;-57
2022/03/17 21:24:32;;;;;;;49.20;39.78;;;;;;;;;;5071500;28;20044;-57
2022/03/17 21:27:10;;;;;;;55.88;40.83;;;;;;;;;;5055876;28;20474;-58
2022/03/17 21:30:22;;;;;;;;;;;;;;;;;;;;;
2022/03/17 21:35:56;;;;;;;;;;;;;;;;;;;;;
2022/03/17 21:38:40;;;;;;;47.10;33.00;;;;;;;;;;5072722;28;20117;-57
2022/03/17 21:41:40;;;;;;;57.08;40.85;;;;;;;;;;5077022;28;20529;-57
2022/03/17 21:44:16;;;;;;;56.35;39.15;;;;;;;;;;5058738;28;20151;-57
2022/03/17 21:49:55;;;;;;;54.92;42.13;;;;;;;;;;5061536;28;20052;-56
2022/03/17 21:55:29;;;;;;;59.97;41.85;;;;;;;;;;5066031;28;20050;-57
2022/03/17 21:58:04;;;;;;;50.97;38.78;;;;;;;;;;5077796;28;20442;-57
2022/03/17 22:01:09;;;;;;;61.47;41.55;;;;;;;;;;5082608;28;20043;-57
2022/03/17 22:03:49;;;;;;;48.22;38.08;;;;;;;;;;5089353;28;20032;-56
2022/03/17 22:06:42;;;;;;;51.95;40.17;;;;;;;;;;5089950;28;20020;-57
2022/03/17 22:09:30;;;;;;;;;;;;;;;;;;;;;
2022/03/17 22:15:00;;;;;;;37.83;31.45;;;;;;;;;;5087384;28;20044;-57
2022/03/17 22:17:30;;;;;;;56.08;41.67;;;;;;;;;;5108761;28;20024;-57
2022/03/17 22:23:47;;;;;;;48.70;35.70;;;;;;;;;;5067330;28;20052;-58
2022/03/17 22:26:14;;;;;;;50.50;33.38;;;;;;;;;;5053628;28;20497;-57
2022/03/17 22:29:07;;;;;;;46.55;36.42;;;;;;;;;;5110075;28;20063;-57
2022/03/17 22:31:34;;;;;;;51.50;37.78;;;;;;;;;;5103471;28;20047;-57
2022/03/17 22:34:20;;;;;;;51.78;39.13;;;;;;;;;;5067156;28;20172;-56
2022/03/17 22:37:11;;;;;;;49.60;36.58;;;;;;;;;;5066986;28;20100;-56
2022/03/17 22:43:35;;;;;;;44.05;34.17;;;;;;;;;;5067269;28;20040;-57
2022/03/17 22:49:19;;;;;;;48.55;34.55;;;;;;;;;;5029193;28;20048;-57
2022/03/17 22:52:11;;;;;;;44.22;32.72;;;;;;;;;;5033606;28;20060;-57
2022/03/17 22:55:04;;;;;;;51.33;36.28;;;;;;;;;;5045126;28;20025;-57
2022/03/17 22:57:47;;;;;;;;;;;;;;;;;;;;;
2022/03/17 23:00:31;;;;;;;47.50;35.22;;;;;;;;;;5033735;28;20064;-57
2022/03/17 23:03:07;;;;;;;52.22;35.35;;;;;;;;;;5066505;28;20031;-57
2022/03/17 23:05:58;;;;;;;;;;;;;;;;;;;;;
2022/03/17 23:11:32;;;;;;;40.25;33.15;;;;;;;;;;5026707;28;20077;-57
2022/03/17 23:14:04;;;;;;;44.15;34.58;;;;;;;;;;5031722;28;20503;-57
2022/03/17 23:17:05;;;;;;;49.78;33.50;;;;;;;;;;5046631;28;20030;-57
2022/03/17 23:20:02;;;;;;;41.92;31.63;;;;;;;;;;5046614;28;20037;-57
2022/03/17 23:25:54;;;;;;;;;;;;;;;;;;;;;
2022/03/17 23:28:52;;;;;;;35.25;25.38;;;;;;;;;;5088440;28;20052;-57
2022/03/17 23:34:52;;;;;;;40.08;28.55;;;;;;;;;;4967757;29;20042;-57
2022/03/17 23:37:18;;;;;;;39.85;27.60;;;;;;;;;;5026385;28;20455;-57
2022/03/17 23:40:05;;;;;;;36.55;27.67;;;;;;;;;;4987069;28;20047;-57
2022/03/17 23:42:48;;;;;;;39.25;28.25;;;;;;;;;;4984035;28;20066;-58
2022/03/17 23:45:21;;;;;;;40.65;28.27;;;;;;;;;;5046110;28;20124;-57
2022/03/17 23:48:20;;;;;;;30.30;24.95;;;;;;;;;;5046148;28;20052;-57
2022/03/17 23:54:13;;;;;;;28.30;23.10;;;;;;;;;;4967207;29;20039;-57
2022/03/17 23:59:55;;;;;;;31.38;23.63;;;;;;;;;;5029672;28;20061;-56
